Time;durP1;ratioP1;P1;durP2;ratioP2;P2;SDS_P1;SDS_P2;PMS_P1;PMS_P2;Temp;Humidity;BMP_temperature;BMP_pressure;BME280_temperature;BME280_humidity;BME280_pressure;Samples;Min_cycle;Max_cycle;Signal;HPM_P1;HPM_P2
2022/10/21 00:02:08;;;;;;;18.08;6.35;;;;;;;18.91;75.42;98362.19;5094049;28;20386;-44
2022/10/21 00:04:34;;;;;;;17.92;6.05;;;;;;;18.94;75.55;98367.78;5094090;28;20099;-44
2022/10/21 00:07:00;;;;;;;18.25;6.70;;;;;;;19.00;75.55;98359.81;5092633;28;20035;-44
2022/10/21 00:09:25;;;;;;;14.95;6.38;;;;;;;19.02;74.88;98357.69;5092607;28;20467;-44
2022/10/21 00:11:51;;;;;;;17.30;6.22;;;;;;;19.02;75.11;98345.19;5092517;28;20456;-44
2022/10/21 00:14:17;;;;;;;14.82;6.22;;;;;;;19.03;74.99;98343.31;5092798;28;20055;-44
2022/10/21 00:16:42;;;;;;;15.00;5.90;;;;;;;19.08;74.95;98351.31;5075514;28;20024;-44
2022/10/21 00:19:08;;;;;;;14.40;6.18;;;;;;;19.08;74.53;98346.78;5092392;28;20024;-44
2022/10/21 00:21:35;;;;;;;16.90;6.07;;;;;;;19.07;74.29;98350.50;5093391;28;20110;-44
2022/10/21 00:24:01;;;;;;;10.90;6.55;;;;;;;19.09;74.23;98342.25;5092268;28;20107;-44
2022/10/21 00:26:27;;;;;;;21.08;6.55;;;;;;;19.08;74.34;98333.50;5093537;28;20118;-44
2022/10/21 00:28:55;;;;;;;12.82;5.63;;;;;;;19.11;74.32;98334.81;5093524;28;20016;-44
2022/10/21 00:31:21;;;;;;;17.27;6.40;;;;;;;19.15;74.15;98320.72;5092538;28;20051;-44
2022/10/21 00:33:47;;;;;;;16.95;6.57;;;;;;;19.25;72.90;98327.91;5093378;28;20054;-44
2022/10/21 00:36:14;;;;;;;16.42;7.07;;;;;;;19.29;71.77;98322.84;5093292;28;20028;-44
2022/10/21 00:38:41;;;;;;;13.60;6.10;;;;;;;19.38;71.70;98320.44;5091996;28;20043;-44
2022/10/21 00:41:07;;;;;;;18.13;6.68;;;;;;;19.34;70.24;98318.34;5091875;28;20032;-44
2022/10/21 00:43:53;;;;;;;18.90;6.38;;;;;;;19.27;70.09;98309.03;5093193;28;20020;-44
2022/10/21 00:46:43;;;;;;;13.65;5.70;;;;;;;19.17;69.89;98299.16;5075074;28;20421;-44
2022/10/21 00:49:20;;;;;;;19.20;6.78;;;;;;;19.12;69.69;98293.88;5091810;28;20024;-44
2022/10/21 00:51:49;;;;;;;20.92;6.45;;;;;;;19.11;69.58;98290.38;5092054;28;20127;-44
2022/10/21 00:54:16;;;;;;;19.58;6.75;;;;;;;19.14;69.09;98286.41;5093053;28;20539;-44
2022/10/21 00:56:44;;;;;;;14.57;5.55;;;;;;;19.18;68.44;98274.19;5092763;28;20032;-44
2022/10/21 00:59:10;;;;;;;21.52;6.32;;;;;;;19.17;68.38;98283.22;5092949;28;20452;-44
2022/10/21 01:01:36;;;;;;;15.40;5.88;;;;;;;19.19;68.38;98280.28;5092875;28;20110;-44
2022/10/21 01:04:03;;;;;;;18.23;5.50;;;;;;;19.20;67.79;98273.91;5091880;28;20121;-44
2022/10/21 01:06:30;;;;;;;14.77;5.68;;;;;;;19.20;67.36;98282.69;5093337;28;20462;-44
2022/10/21 01:08:56;;;;;;;18.40;7.32;;;;;;;19.18;67.04;98274.19;5091743;28;20088;-44
2022/10/21 01:11:25;;;;;;;13.88;5.97;;;;;;;19.13;67.09;98260.88;5092728;28;20071;-44
2022/10/21 01:14:26;;;;;;;16.38;6.85;;;;;;;19.10;67.12;98269.41;5092729;28;20027;-44
2022/10/21 01:17:27;;;;;;;14.85;5.97;;;;;;;19.08;66.95;98264.34;5092615;28;20027;-44
2022/10/21 01:20:13;;;;;;;16.23;6.10;;;;;;;19.07;67.03;98256.63;5068546;28;20115;-44
2022/10/21 01:23:20;;;;;;;15.90;5.85;;;;;;;19.05;66.90;98245.44;5091304;28;20074;-44
2022/10/21 01:26:04;;;;;;;11.93;5.07;;;;;;;19.04;66.65;98241.22;5091232;28;20050;-44
2022/10/21 01:28:39;;;;;;;27.58;7.35;;;;;;;18.94;66.91;98237.47;5091122;28;20074;-44
2022/10/21 01:31:18;;;;;;;15.38;5.85;;;;;;;18.87;66.68;98228.16;5091159;28;20044;-45
2022/10/21 01:34:14;;;;;;;14.85;7.03;;;;;;;18.83;67.30;98235.84;5092426;28;20024;-44
2022/10/21 01:37:22;;;;;;;12.23;6.10;;;;;;;18.84;66.68;98236.69;5091855;28;20113;-44
2022/10/21 01:39:56;;;;;;;18.42;6.00;;;;;;;18.83;66.74;98235.84;5046654;28;20036;-44
2022/10/21 01:42:56;;;;;;;15.80;5.70;;;;;;;18.80;66.78;98232.94;5090856;28;20123;-44
2022/10/21 01:45:28;;;;;;;14.93;6.40;;;;;;;18.73;67.18;98223.34;5090225;28;20032;-44
2022/10/21 01:47:57;;;;;;;13.98;6.20;;;;;;;18.76;67.28;98211.38;5090855;28;20125;-44
2022/10/21 01:50:26;;;;;;;15.23;6.53;;;;;;;18.79;67.04;98213.53;5090813;28;20020;-44
2022/10/21 01:52:57;;;;;;;21.17;6.88;;;;;;;18.83;66.75;98203.16;5092113;28;20051;-44
2022/10/21 01:55:27;;;;;;;15.63;6.38;;;;;;;18.85;66.08;98201.81;5092074;28;20046;-44
2022/10/21 01:58:01;;;;;;;13.93;6.40;;;;;;;18.84;66.21;98199.44;5091952;28;20081;-44
2022/10/21 02:00:28;;;;;;;15.13;6.18;;;;;;;18.82;66.19;98197.06;5090998;28;20031;-44
2022/10/21 02:02:56;;;;;;;14.50;6.90;;;;;;;18.79;66.43;98202.88;5090635;28;20039;-44
2022/10/21 02:05:28;;;;;;;14.02;6.20;;;;;;;18.79;66.63;98207.38;5091874;28;20081;-44
2022/10/21 02:07:54;;;;;;;17.73;6.75;;;;;;;18.81;66.54;98211.41;5090759;28;20051;-44
2022/10/21 02:10:22;;;;;;;22.27;6.57;;;;;;;18.85;66.48;98215.13;5091803;28;20016;-44
2022/10/21 02:12:53;;;;;;;16.50;7.07;;;;;;;18.93;66.02;98214.63;5090467;28;20029;-44
2022/10/21 02:15:22;;;;;;;17.98;6.85;;;;;;;19.00;65.64;98218.88;5074560;28;20031;-44
2022/10/21 02:18:05;;;;;;;17.80;6.88;;;;;;;19.03;65.33;98220.97;5090645;28;20024;-44
2022/10/21 02:20:38;;;;;;;13.88;6.32;;;;;;;19.04;65.05;98220.72;5091522;28;20599;-45
2022/10/21 02:23:06;;;;;;;14.63;6.18;;;;;;;19.09;64.60;98230.53;5090466;28;20028;-44
2022/10/21 02:25:35;;;;;;;16.23;6.35;;;;;;;19.14;64.30;98228.69;5091920;28;20020;-44
2022/10/21 02:28:02;;;;;;;14.13;6.40;;;;;;;19.19;63.71;98221.75;5091728;28;20541;-45
2022/10/21 02:30:35;;;;;;;23.38;7.05;;;;;;;19.23;63.21;98226.28;5073515;28;20024;-44
2022/10/21 02:33:14;;;;;;;14.30;6.18;;;;;;;19.26;62.97;98225.75;5090386;28;20051;-44
2022/10/21 02:36:09;;;;;;;13.00;5.25;;;;;;;19.28;62.85;98234.25;5091536;28;20107;-44
2022/10/21 02:38:48;;;;;;;13.70;6.00;;;;;;;19.32;62.67;98243.31;5091790;28;20039;-44
2022/10/21 02:41:20;;;;;;;20.33;5.85;;;;;;;19.33;62.63;98255.53;5090320;28;20039;-44
2022/10/21 02:43:55;;;;;;;13.57;6.35;;;;;;;19.32;63.35;98261.94;5073727;28;20032;-44
2022/10/21 02:46:21;;;;;;;13.63;6.20;;;;;;;19.22;64.19;98245.97;5090243;28;20107;-44
2022/10/21 02:48:47;;;;;;;15.93;6.90;;;;;;;18.93;65.48;98230.56;5091461;28;20054;-44
2022/10/21 02:51:14;;;;;;;11.82;6.43;;;;;;;18.61;67.38;98209.50;5090133;28;20031;-44
2022/10/21 02:53:40;;;;;;;14.43;6.25;;;;;;;18.30;68.59;98185.53;5092916;28;20017;-44
2022/10/21 02:56:07;;;;;;;14.20;6.60;;;;;;;17.99;70.23;98211.22;5093847;28;20032;-44
2022/10/21 02:58:33;;;;;;;21.10;5.75;;;;;;;17.73;71.51;98208.44;5094243;28;20394;-44
2022/10/21 03:00:59;;;;;;;19.02;7.90;;;;;;;17.56;72.84;98176.75;5095222;28;20091;-44
2022/10/21 03:03:25;;;;;;;17.83;6.80;;;;;;;17.46;72.96;98157.34;5095193;28;20069;-44
2022/10/21 03:05:51;;;;;;;14.65;5.63;;;;;;;17.38;72.58;98142.72;5094102;28;20110;-44
2022/10/21 03:08:17;;;;;;;13.05;5.43;;;;;;;17.40;72.43;98169.00;5095151;28;20020;-44
2022/10/21 03:10:42;;;;;;;14.40;6.07;;;;;;;17.47;71.75;98161.59;5095060;28;20069;-44
2022/10/21 03:13:08;;;;;;;17.77;6.72;;;;;;;17.54;71.95;98167.47;5077078;28;20044;-44
2022/10/21 03:15:34;;;;;;;11.88;5.78;;;;;;;17.64;71.39;98180.78;5093569;28;20397;-44
2022/10/21 03:18:00;;;;;;;20.00;7.47;;;;;;;17.74;70.80;98174.72;5094925;28;20028;-44
2022/10/21 03:20:25;;;;;;;17.42;6.93;;;;;;;17.81;71.18;98182.44;5093744;28;20059;-44
2022/10/21 03:22:51;;;;;;;15.68;6.45;;;;;;;17.96;70.64;98187.84;5094618;28;20048;-44
2022/10/21 03:25:17;;;;;;;20.23;6.65;;;;;;;18.07;69.96;98189.47;5093686;28;20024;-44
2022/10/21 03:27:43;;;;;;;24.08;7.20;;;;;;;18.16;69.44;98169.31;5094703;28;20103;-44
2022/10/21 03:30:09;;;;;;;20.65;6.57;;;;;;;18.31;68.70;98199.63;5093370;28;20107;-44
2022/10/21 03:32:35;;;;;;;18.98;6.43;;;;;;;18.34;68.86;98205.19;5094592;28;20078;-44
2022/10/21 03:35:01;;;;;;;14.32;6.28;;;;;;;18.43;68.47;98200.19;5094544;28;20016;-44
2022/10/21 03:37:27;;;;;;;17.10;7.00;;;;;;;18.53;67.21;98199.38;5094533;28;20035;-44
2022/10/21 03:39:52;;;;;;;13.55;6.28;;;;;;;18.61;67.76;98190.88;5093197;28;20114;-44
2022/10/21 03:42:18;;;;;;;22.70;6.80;;;;;;;18.67;66.44;98199.66;5093113;28;20512;-44
2022/10/21 03:44:44;;;;;;;16.13;6.65;;;;;;;18.67;66.73;98199.66;5093064;28;20187;-44
2022/10/21 03:47:09;;;;;;;29.48;6.80;;;;;;;18.67;66.66;98207.63;5094304;28;20074;-44
2022/10/21 03:49:35;;;;;;;23.10;7.70;;;;;;;18.67;66.22;98189.03;5093321;28;20101;-44
2022/10/21 03:52:00;;;;;;;15.98;6.53;;;;;;;18.68;65.99;98167.50;5094277;28;20103;-44
2022/10/21 03:54:26;;;;;;;18.33;7.05;;;;;;;18.71;65.27;98179.47;5094143;28;20036;-44
2022/10/21 03:56:52;;;;;;;27.33;7.00;;;;;;;18.69;64.90;98174.44;5092771;28;20438;-44
2022/10/21 03:59:18;;;;;;;14.52;6.25;;;;;;;18.71;64.55;98180.28;5094122;28;20043;-44
2022/10/21 04:01:43;;;;;;;13.38;5.63;;;;;;;18.73;64.30;98185.31;5093994;28;20112;-44
2022/10/21 04:04:09;;;;;;;14.93;6.85;;;;;;;18.79;64.79;98191.44;5092475;28;20390;-44
2022/10/21 04:06:35;;;;;;;18.77;6.60;;;;;;;18.89;64.22;98192.25;5093898;28;20039;-44
2022/10/21 04:09:01;;;;;;;17.58;7.03;;;;;;;18.90;64.12;98201.03;5092912;28;20107;-44
2022/10/21 04:11:27;;;;;;;19.35;6.18;;;;;;;18.85;64.35;98224.97;5092820;28;20035;-44
2022/10/21 04:13:52;;;;;;;14.68;6.68;;;;;;;18.90;64.00;98235.63;5092546;28;20054;-44
2022/10/21 04:16:19;;;;;;;11.52;6.25;;;;;;;18.88;64.08;98235.88;5093634;28;20470;-44
2022/10/21 04:18:46;;;;;;;23.45;7.25;;;;;;;18.92;63.80;98242.25;5092782;28;20024;-44
2022/10/21 04:21:11;;;;;;;21.92;7.57;;;;;;;18.94;63.67;98242.78;5093384;28;20048;-44
2022/10/21 04:23:37;;;;;;;15.93;6.95;;;;;;;19.00;63.81;98240.13;5092291;28;20378;-44
2022/10/21 04:26:06;;;;;;;19.70;6.90;;;;;;;19.10;63.87;98237.47;5093570;28;20051;-44
2022/10/21 04:28:32;;;;;;;16.23;6.43;;;;;;;19.14;63.07;98241.19;5092559;28;20020;-44
2022/10/21 04:30:58;;;;;;;33.78;7.85;;;;;;;19.09;63.32;98244.63;5092450;28;20032;-44
2022/10/21 04:33:24;;;;;;;13.63;6.40;;;;;;;19.18;63.05;98247.56;5093397;28;20023;-44
2022/10/21 04:35:52;;;;;;;26.35;7.53;;;;;;;19.14;62.84;98244.66;5093587;28;20073;-44
2022/10/21 04:38:17;;;;;;;24.15;7.82;;;;;;;19.04;63.04;98255.28;5092057;28;20112;-45
2022/10/21 04:40:43;;;;;;;21.00;6.75;;;;;;;18.95;63.26;98254.22;5091944;28;20505;-44
2022/10/21 04:43:09;;;;;;;15.43;6.68;;;;;;;18.86;63.60;98251.28;5093242;28;20031;-44
2022/10/21 04:45:38;;;;;;;20.25;7.18;;;;;;;18.82;63.85;98254.75;5091873;28;20501;-44
2022/10/21 04:48:05;;;;;;;18.10;6.97;;;;;;;18.76;64.04;98252.03;5093231;28;20043;-44
2022/10/21 04:50:31;;;;;;;15.38;6.82;;;;;;;18.70;64.19;98253.09;5093357;28;20086;-44
2022/10/21 04:52:57;;;;;;;16.27;6.15;;;;;;;18.66;63.99;98244.06;5093079;28;20024;-44
2022/10/21 04:55:22;;;;;;;16.70;6.97;;;;;;;18.65;64.17;98244.31;5093023;28;20074;-44
2022/10/21 04:57:48;;;;;;;18.08;7.03;;;;;;;18.60;64.24;98247.78;5091626;28;20115;-44
2022/10/21 05:00:14;;;;;;;21.95;7.57;;;;;;;18.63;64.38;98276.47;5092978;28;20027;-44
2022/10/21 05:02:40;;;;;;;22.67;7.28;;;;;;;18.63;64.01;98283.66;5092970;28;20024;-44
2022/10/21 05:05:06;;;;;;;21.58;8.00;;;;;;;18.59;64.29;98283.38;5091487;28;20123;-44
2022/10/21 05:07:31;;;;;;;24.35;7.18;;;;;;;18.65;64.33;98276.22;5074739;28;20028;-44
2022/10/21 05:09:57;;;;;;;26.20;7.22;;;;;;;18.74;63.92;98269.34;5091803;28;20497;-44
2022/10/21 05:12:25;;;;;;;27.25;6.25;;;;;;;18.74;63.65;98256.03;5091360;28;20024;-44
2022/10/21 05:14:51;;;;;;;21.67;6.28;;;;;;;18.76;63.49;98267.22;5092701;28;20103;-44
2022/10/21 05:17:17;;;;;;;13.90;6.07;;;;;;;18.77;63.29;98263.47;5091884;28;20123;-44
2022/10/21 05:19:42;;;;;;;14.00;6.55;;;;;;;18.77;63.29;98263.47;5092853;28;20024;-44
2022/10/21 05:22:08;;;;;;;24.02;6.93;;;;;;;18.74;63.25;98251.50;5092309;28;20417;-44
2022/10/21 05:24:34;;;;;;;21.05;6.50;;;;;;;18.76;63.16;98261.88;5091186;28;20039;-44
2022/10/21 05:26:59;;;;;;;23.50;6.22;;;;;;;18.75;63.15;98262.94;5091143;28;20140;-44
2022/10/21 05:29:25;;;;;;;19.25;6.97;;;;;;;18.76;63.30;98259.22;5092445;28;20016;-44
2022/10/21 05:31:51;;;;;;;19.67;5.97;;;;;;;18.77;63.24;98264.28;5091068;28;20028;-44
2022/10/21 05:34:17;;;;;;;23.10;6.55;;;;;;;18.82;63.17;98254.75;5090969;28;20020;-44
2022/10/21 05:36:42;;;;;;;22.38;7.10;;;;;;;18.87;62.87;98268.81;5092253;28;20043;-44
2022/10/21 05:39:10;;;;;;;23.13;7.65;;;;;;;18.86;62.85;98277.09;5091268;28;20039;-44
2022/10/21 05:41:36;;;;;;;18.40;6.03;;;;;;;18.94;63.03;98277.34;5092118;28;20075;-44
2022/10/21 05:44:02;;;;;;;15.05;6.32;;;;;;;18.97;62.82;98281.34;5090887;28;20398;-44
2022/10/21 05:46:28;;;;;;;24.35;6.57;;;;;;;18.91;62.96;98274.41;5090844;28;20028;-44
2022/10/21 05:48:54;;;;;;;17.02;7.03;;;;;;;18.85;63.23;98280.78;5092054;28;20020;-44
2022/10/21 05:51:25;;;;;;;15.30;6.40;;;;;;;18.81;63.27;98291.16;5092044;28;20099;-44
2022/10/21 05:53:54;;;;;;;22.55;7.32;;;;;;;18.74;63.47;98287.94;5092122;28;20055;-44
2022/10/21 05:56:20;;;;;;;23.70;7.10;;;;;;;18.71;64.12;98283.13;5091815;28;20024;-44
2022/10/21 05:58:46;;;;;;;22.42;6.15;;;;;;;18.67;63.96;98295.34;5092064;28;20020;-44
2022/10/21 06:01:11;;;;;;;18.38;6.05;;;;;;;18.62;64.11;98298.03;5091932;28;20020;-44
2022/10/21 06:03:37;;;;;;;19.50;6.65;;;;;;;18.59;64.38;98294.00;5091938;28;20029;-44
2022/10/21 06:06:05;;;;;;;17.35;5.78;;;;;;;18.59;64.47;98301.97;5091837;28;20023;-44
2022/10/21 06:08:33;;;;;;;27.88;7.25;;;;;;;18.56;64.53;98308.63;5090722;28;20044;-44
2022/10/21 06:11:11;;;;;;;18.60;6.80;;;;;;;18.56;64.87;98311.28;5090512;28;20067;-44
2022/10/21 06:13:38;;;;;;;17.42;7.07;;;;;;;18.60;64.70;98321.41;5091877;28;20039;-44
2022/10/21 06:16:06;;;;;;;20.73;6.18;;;;;;;18.60;64.76;98321.41;5090547;28;20055;-44
2022/10/21 06:18:31;;;;;;;20.58;6.53;;;;;;;18.59;64.90;98314.47;5090568;28;20097;-44
2022/10/21 06:20:58;;;;;;;18.42;6.18;;;;;;;18.54;65.09;98313.41;5091414;28;20119;-44
2022/10/21 06:23:23;;;;;;;18.45;6.43;;;;;;;18.52;65.30;98325.34;5091663;28;20023;-44
2022/10/21 06:25:59;;;;;;;14.25;5.32;;;;;;;18.49;65.53;98329.34;5091742;28;20020;-44
2022/10/21 06:28:27;;;;;;;20.75;5.40;;;;;;;18.50;65.53;98338.09;5093237;28;20028;-44
2022/10/21 06:30:53;;;;;;;17.17;6.53;;;;;;;18.50;65.61;98322.94;5094516;28;20065;-44
2022/10/21 06:33:19;;;;;;;20.13;5.28;;;;;;;18.52;65.68;98336.78;5095774;28;20016;-44
2022/10/21 06:35:45;;;;;;;20.20;5.72;;;;;;;18.60;65.73;98340.00;5094462;28;20023;-44
2022/10/21 06:38:11;;;;;;;16.52;5.57;;;;;;;18.63;65.65;98350.09;5094454;28;20032;-44
2022/10/21 06:40:37;;;;;;;22.77;5.93;;;;;;;18.62;65.72;98346.66;5095656;28;20085;-44
2022/10/21 06:43:03;;;;;;;24.23;5.35;;;;;;;18.63;65.85;98355.41;5095681;28;20023;-44
2022/10/21 06:45:28;;;;;;;23.65;5.97;;;;;;;18.66;65.77;98358.34;5095629;28;20028;-44
2022/10/21 06:47:54;;;;;;;20.02;6.13;;;;;;;18.69;65.67;98359.69;5095573;28;20027;-44
2022/10/21 06:50:20;;;;;;;21.45;5.03;;;;;;;18.70;65.83;98375.38;5095521;28;20075;-45
2022/10/21 06:52:48;;;;;;;17.40;6.10;;;;;;;18.71;65.63;98376.19;5095448;28;20020;-44
2022/10/21 06:55:14;;;;;;;20.13;5.28;;;;;;;18.70;65.61;98372.72;5095374;28;20481;-44
2022/10/21 06:57:40;;;;;;;17.05;5.35;;;;;;;18.78;65.61;98382.06;5095317;28;20065;-44
2022/10/21 07:00:06;;;;;;;19.27;5.78;;;;;;;18.84;65.29;98383.69;5095358;28;20026;-44
2022/10/21 07:02:32;;;;;;;19.58;5.43;;;;;;;18.85;65.40;98382.63;5093916;28;20055;-44
2022/10/21 07:04:57;;;;;;;17.58;4.85;;;;;;;18.88;65.34;98383.97;5093861;28;20060;-44
2022/10/21 07:07:24;;;;;;;22.15;7.30;;;;;;;18.88;65.32;98379.47;5095167;28;20062;-44
2022/10/21 07:09:49;;;;;;;25.80;5.38;;;;;;;18.89;65.38;98374.94;5076911;28;20396;-44
2022/10/21 07:12:15;;;;;;;16.60;5.75;;;;;;;18.91;65.29;98386.09;5094995;28;20024;-44
2022/10/21 07:14:41;;;;;;;22.88;5.35;;;;;;;18.87;65.52;98387.69;5093738;28;20516;-44
2022/10/21 07:17:07;;;;;;;14.00;4.43;;;;;;;18.85;65.43;98387.94;5093534;28;20028;-44
2022/10/21 07:19:32;;;;;;;15.50;5.47;;;;;;;18.86;65.63;98392.22;5094909;28;20020;-45
2022/10/21 07:21:58;;;;;;;27.58;5.75;;;;;;;18.90;65.46;98397.81;5094614;28;20048;-44
2022/10/21 07:24:24;;;;;;;20.92;5.60;;;;;;;18.87;65.78;98398.31;5093492;28;20020;-44
2022/10/21 07:26:50;;;;;;;17.55;5.88;;;;;;;18.87;65.53;98401.78;5094781;28;20505;-44
2022/10/21 07:29:17;;;;;;;15.20;4.38;;;;;;;18.83;65.73;98397.25;5094714;28;20020;-44
2022/10/21 07:31:42;;;;;;;16.65;4.60;;;;;;;18.77;65.80;98397.22;5094619;28;20031;-44
2022/10/21 07:34:11;;;;;;;17.15;5.70;;;;;;;18.74;65.88;98397.72;5093338;28;20024;-44
2022/10/21 07:36:40;;;;;;;16.95;4.82;;;;;;;18.75;65.97;98403.84;5093355;28;20051;-44
2022/10/21 07:39:11;;;;;;;19.33;6.07;;;;;;;18.78;66.04;98403.31;5093913;28;20551;-44
2022/10/21 07:41:43;;;;;;;14.43;4.93;;;;;;;18.81;65.98;98399.38;5094501;28;20028;-44
2022/10/21 07:44:10;;;;;;;13.43;4.97;;;;;;;18.90;65.75;98401.28;5094499;28;20022;-44
2022/10/21 07:46:38;;;;;;;15.85;5.07;;;;;;;18.88;65.56;98394.63;5094354;28;20115;-44
2022/10/21 07:49:04;;;;;;;22.60;6.05;;;;;;;18.90;65.59;98405.78;5094655;28;20035;-44
2022/10/21 07:51:31;;;;;;;21.23;5.63;;;;;;;18.93;65.55;98414.06;5094269;28;20108;-44
2022/10/21 07:53:58;;;;;;;23.27;5.53;;;;;;;18.95;65.72;98430.56;5092976;28;20059;-44
2022/10/21 07:56:30;;;;;;;21.85;6.05;;;;;;;19.04;65.38;98438.81;5092892;28;20046;-45
2022/10/21 07:58:57;;;;;;;17.75;5.60;;;;;;;19.16;65.05;98431.41;5094260;28;20489;-44
2022/10/21 08:01:23;;;;;;;17.58;3.92;;;;;;;19.27;64.56;98436.72;5094062;28;20016;-45
2022/10/21 08:03:51;;;;;;;21.08;4.70;;;;;;;19.39;64.06;98442.59;5094129;28;20074;-44
2022/10/21 08:06:17;;;;;;;29.63;6.60;;;;;;;19.61;64.87;98449.56;5094079;28;20031;-44
2022/10/21 08:08:43;;;;;;;28.75;7.10;;;;;;;20.09;63.85;98436.81;5092695;28;20028;-45
2022/10/21 08:11:09;;;;;;;33.20;7.10;;;;;;;20.30;63.47;98446.38;5092542;28;20036;-45
2022/10/21 08:13:36;;;;;;;36.22;7.03;;;;;;;20.71;62.83;98446.28;5092949;28;20020;-45
2022/10/21 08:16:04;;;;;;;22.02;6.57;;;;;;;21.10;61.84;98439.44;5075924;28;20040;-44
2022/10/21 08:18:30;;;;;;;21.98;5.97;;;;;;;21.46;60.62;98453.38;5093802;28;20494;-45
2022/10/21 08:20:56;;;;;;;27.35;6.95;;;;;;;21.51;59.76;98452.53;5093478;28;20119;-45
2022/10/21 08:23:25;;;;;;;19.00;5.60;;;;;;;21.29;59.91;98453.75;5093771;28;20103;-45
2022/10/21 08:25:56;;;;;;;21.33;6.13;;;;;;;21.12;59.38;98445.28;5093708;28;20095;-44
2022/10/21 08:28:25;;;;;;;15.43;5.28;;;;;;;21.00;59.80;98439.47;5093850;28;20024;-45
2022/10/21 08:30:51;;;;;;;15.95;4.90;;;;;;;20.93;58.74;98439.78;5093540;28;20024;-44
2022/10/21 08:33:17;;;;;;;12.98;4.10;;;;;;;20.86;58.11;98440.06;5093464;28;20404;-44
2022/10/21 08:35:43;;;;;;;13.50;4.10;;;;;;;20.78;58.32;98426.50;5092099;28;20020;-45
2022/10/21 08:38:10;;;;;;;15.77;3.70;;;;;;;20.73;57.88;98427.34;5093268;28;20138;-44
2022/10/21 08:40:53;;;;;;;9.10;3.17;;;;;;;20.74;57.49;98431.59;5093407;28;20043;-44
2022/10/21 08:43:34;;;;;;;14.70;3.45;;;;;;;20.76;57.43;98434.78;5093372;28;20093;-44
2022/10/21 08:46:06;;;;;;;15.20;3.70;;;;;;;20.75;57.03;98433.19;5091917;28;20439;-44
2022/10/21 08:48:41;;;;;;;10.57;2.38;;;;;;;20.77;56.85;98425.72;5092049;28;20036;-44
2022/10/21 08:51:12;;;;;;;;;;;;;;;20.85;57.04;98432.38;5091302;28;20036;-44
2022/10/21 08:53:45;;;;;;;12.60;4.03;;;;;;;20.89;57.09;98428.88;5092158;28;20009;-44
2022/10/21 08:56:13;;;;;;;12.73;3.60;;;;;;;20.98;56.63;98431.75;5091965;28;20117;-45
2022/10/21 08:58:39;;;;;;;12.10;2.58;;;;;;;21.04;55.74;98419.19;5075069;28;20031;-44
2022/10/21 09:01:41;;;;;;;10.80;2.97;;;;;;;20.99;56.40;98422.69;5091598;28;20027;-44
2022/10/21 09:04:25;;;;;;;11.18;3.15;;;;;;;21.02;56.92;98419.44;5088615;28;20119;-44
2022/10/21 09:07:06;;;;;;;8.25;2.55;;;;;;;21.12;56.39;98424.72;5092864;28;20063;-44
2022/10/21 09:09:37;;;;;;;6.57;3.40;;;;;;;21.14;56.02;98424.47;5092866;28;20028;-44
2022/10/21 09:12:35;;;;;;;15.68;4.07;;;;;;;21.23;56.10;98420.16;5122011;27;20383;-46
2022/10/21 09:15:20;;;;;;;13.75;2.80;;;;;;;21.36;55.70;98434.75;5089355;28;20036;-46
2022/10/21 09:18:04;;;;;;;12.52;2.90;;;;;;;21.59;54.90;98435.97;5089314;28;20371;-46
2022/10/21 09:20:55;;;;;;;9.27;2.53;;;;;;;21.84;54.25;98428.81;5121932;27;20036;-46
2022/10/21 09:23:31;;;;;;;12.70;3.30;;;;;;;22.07;53.83;98427.25;5089185;28;20103;-45
2022/10/21 09:26:04;;;;;;;14.45;2.75;;;;;;;22.47;52.72;98439.44;5121982;27;20036;-46
2022/10/21 09:28:31;;;;;;;9.35;2.65;;;;;;;22.73;52.17;98437.25;5121986;28;20020;-46
2022/10/21 09:31:01;;;;;;;14.00;3.33;;;;;;;22.82;52.37;98432.09;5088847;28;20028;-46
2022/10/21 09:33:33;;;;;;;15.90;2.78;;;;;;;22.87;51.50;98432.00;5089010;28;20027;-46
2022/10/21 09:36:05;;;;;;;11.05;2.50;;;;;;;22.94;51.25;98431.69;5089035;28;20085;-46
2022/10/21 09:38:47;;;;;;;12.23;2.67;;;;;;;22.93;50.90;98432.75;5087645;28;20036;-46
2022/10/21 09:41:20;;;;;;;9.98;2.35;;;;;;;22.90;50.25;98426.09;5121586;27;20032;-46
2022/10/21 09:43:47;;;;;;;4.88;1.88;;;;;;;22.85;50.42;98428.03;5088830;28;20024;-46
2022/10/21 09:46:14;;;;;;;12.15;2.20;;;;;;;22.84;50.77;98421.09;5088634;28;20024;-46
2022/10/21 09:48:50;;;;;;;7.50;1.90;;;;;;;22.83;50.63;98422.97;5087403;28;20025;-46
2022/10/21 09:51:27;;;;;;;5.53;1.50;;;;;;;22.80;50.91;98425.41;5088520;28;20020;-46
2022/10/21 09:53:57;;;;;;;9.20;2.08;;;;;;;22.83;50.74;98419.50;5070477;28;20562;-46
2022/10/21 09:56:29;;;;;;;9.88;1.77;;;;;;;22.92;49.72;98421.25;5121323;27;20028;-46
2022/10/21 09:59:03;;;;;;;9.05;1.70;;;;;;;23.06;49.97;98415.19;5087375;28;20500;-46
2022/10/21 10:01:30;;;;;;;7.95;1.88;;;;;;;23.18;49.34;98407.56;5088402;28;20044;-46
2022/10/21 10:03:56;;;;;;;4.88;1.90;;;;;;;23.36;48.84;98427.34;5088411;28;20502;-46
2022/10/21 10:06:37;;;;;;;6.25;2.15;;;;;;;23.46;48.93;98411.16;5121072;27;20115;-46
2022/10/21 10:09:12;;;;;;;7.45;1.58;;;;;;;23.35;48.89;98408.94;5088278;28;20065;-46
2022/10/21 10:11:49;;;;;;;5.68;1.40;;;;;;;23.11;49.26;98412.47;5088025;28;20413;-45
2022/10/21 10:14:29;;;;;;;5.45;1.50;;;;;;;22.95;49.58;98419.88;5088160;28;20107;-45
2022/10/21 10:16:56;;;;;;;8.43;1.75;;;;;;;22.79;50.00;98415.81;5088193;28;20021;-46
2022/10/21 10:19:27;;;;;;;4.82;1.55;;;;;;;22.78;50.21;98420.38;5086772;28;20028;-46
2022/10/21 10:22:12;;;;;;;9.02;1.60;;;;;;;22.80;50.62;98420.88;5083691;28;20029;-45
2022/10/21 10:24:40;;;;;;;6.07;1.75;;;;;;;22.95;50.35;98433.25;5074550;28;20081;-45
2022/10/21 10:27:12;;;;;;;11.48;2.28;;;;;;;23.08;49.96;98431.78;5074417;28;20039;-46
2022/10/21 10:29:40;;;;;;;7.10;1.48;;;;;;;23.05;50.12;98427.00;5073187;28;20036;-46
2022/10/21 10:32:15;;;;;;;7.55;1.63;;;;;;;23.01;50.06;98421.41;5074322;28;20043;-45
2022/10/21 10:34:50;;;;;;;7.10;1.83;;;;;;;22.89;50.65;98421.81;5074493;28;20028;-46
2022/10/21 10:37:27;;;;;;;8.55;1.55;;;;;;;22.79;50.83;98421.94;5106914;28;20025;-45
2022/10/21 10:39:59;;;;;;;6.45;1.70;;;;;;;22.56;51.74;98436.94;5072926;28;20024;-45
2022/10/21 10:42:31;;;;;;;8.70;1.75;;;;;;;22.32;52.31;98442.28;5106720;28;20105;-46
2022/10/21 10:45:01;;;;;;;9.88;1.65;;;;;;;22.04;54.67;98417.94;5074244;28;20024;-45
2022/10/21 10:47:34;;;;;;;5.55;1.63;;;;;;;21.44;57.49;98418.16;5074416;28;20386;-45
2022/10/21 10:50:00;;;;;;;6.63;1.52;;;;;;;20.59;61.53;98413.78;5073011;28;20064;-45
2022/10/21 10:52:26;;;;;;;5.50;1.77;;;;;;;19.84;64.90;98408.31;5074116;28;20044;-45
2022/10/21 10:55:16;;;;;;;6.57;1.40;;;;;;;19.46;67.61;98397.13;5106554;28;20172;-45
2022/10/21 10:57:46;;;;;;;6.60;1.42;;;;;;;19.38;67.85;98410.94;5069920;28;20041;-45
2022/10/21 11:00:21;;;;;;;5.68;1.42;;;;;;;19.35;67.96;98430.91;5073875;28;20029;-45
2022/10/21 11:03:01;;;;;;;5.53;1.43;;;;;;;19.41;67.54;98418.41;5073898;28;20029;-45
2022/10/21 11:05:37;;;;;;;6.43;1.45;;;;;;;19.55;67.14;98427.47;5073845;28;20020;-45
2022/10/21 11:08:13;;;;;;;6.85;2.40;;;;;;;19.78;66.35;98407.53;5073748;28;20115;-45
2022/10/21 11:10:48;;;;;;;6.03;2.20;;;;;;;20.06;64.89;98408.84;5073417;28;20044;-45
2022/10/21 11:13:17;;;;;;;5.83;1.90;;;;;;;20.30;64.16;98409.06;5072366;28;20030;-45
2022/10/21 11:16:11;;;;;;;6.03;1.65;;;;;;;20.49;62.92;98398.59;5073514;28;20027;-45
2022/10/21 11:18:45;;;;;;;10.25;2.70;;;;;;;20.64;62.22;98397.75;5073570;28;20111;-45
2022/10/21 11:21:17;;;;;;;9.07;4.57;;;;;;;20.86;62.01;98405.38;5073482;28;20508;-45
2022/10/21 11:24:06;;;;;;;10.65;2.70;;;;;;;21.17;61.06;98401.75;5073451;28;20032;-46
2022/10/21 11:26:56;;;;;;;9.05;3.03;;;;;;;21.48;60.34;98402.38;5069085;28;20048;-45
2022/10/21 11:30:01;;;;;;;7.78;2.38;;;;;;;21.84;58.32;98402.88;5073285;28;20048;-45
2022/10/21 11:32:31;;;;;;;6.63;2.10;;;;;;;22.19;56.97;98403.59;5073318;28;20032;-46
2022/10/21 11:35:06;;;;;;;6.57;2.20;;;;;;;22.38;56.20;98409.06;5104760;28;20498;-45
2022/10/21 11:37:40;;;;;;;6.18;2.67;;;;;;;22.71;55.55;98395.84;5073352;28;20061;-45
2022/10/21 11:40:24;;;;;;;4.45;2.15;;;;;;;23.02;54.24;98396.28;5073121;28;20115;-45
2022/10/21 11:42:52;;;;;;;9.02;2.47;;;;;;;23.22;53.50;98395.19;5073126;28;20509;-45